Time;durP1;ratioP1;P1;durP2;ratioP2;P2;SDS_P1;SDS_P2;PMS_P1;PMS_P2;Temp;Humidity;BMP_temperature;BMP_pressure;BME280_temperature;BME280_humidity;BME280_pressure;Samples;Min_cycle;Max_cycle;Signal;HPM_P1;HPM_P2
2022/01/19 00:00:14;;;;;;;26.88;8.25;;;-2.50;99.90;;;;;;5012901;28;20773;-55
2022/01/19 00:02:39;;;;;;;17.42;9.52;;;-2.40;99.90;;;;;;5024465;28;20025;-53
2022/01/19 00:05:08;;;;;;;20.70;8.55;;;-2.50;99.90;;;;;;5013547;28;20675;-55
2022/01/19 00:07:33;;;;;;;15.73;8.80;;;-2.40;99.90;;;;;;5024672;28;20083;-55
2022/01/19 00:10:05;;;;;;;21.80;7.15;;;-2.40;99.90;;;;;;5012851;28;20030;-55
2022/01/19 00:12:34;;;;;;;19.13;8.15;;;-2.50;99.90;;;;;;5024395;28;20029;-54
2022/01/19 00:15:00;;;;;;;25.38;9.10;;;-2.50;99.90;;;;;;5012618;28;20477;-56
2022/01/19 00:17:26;;;;;;;32.40;10.77;;;-2.60;99.90;;;;;;5023047;28;20063;-54
2022/01/19 00:19:51;;;;;;;21.13;9.32;;;-2.60;99.90;;;;;;5017214;28;20101;-55
2022/01/19 00:22:17;;;;;;;22.40;9.85;;;-2.60;99.90;;;;;;5020807;28;20133;-53
2022/01/19 00:24:43;;;;;;;18.70;9.50;;;-2.50;99.90;;;;;;5014473;28;20026;-55
2022/01/19 00:27:09;;;;;;;27.52;8.98;;;-2.60;99.90;;;;;;5020753;28;20029;-52
2022/01/19 00:29:35;;;;;;;20.67;8.75;;;-2.60;99.90;;;;;;5029988;28;20048;-56
2022/01/19 00:32:01;;;;;;;26.67;8.45;;;-2.60;99.90;;;;;;5020764;28;20459;-55
2022/01/19 00:34:28;;;;;;;20.17;8.63;;;-2.50;99.90;;;;;;5026871;28;20335;-52
2022/01/19 00:36:54;;;;;;;17.10;7.93;;;-2.50;99.90;;;;;;5022621;28;20034;-56
2022/01/19 00:39:19;;;;;;;22.92;8.77;;;-2.60;99.90;;;;;;5029265;28;20120;-55
2022/01/19 00:41:45;;;;;;;19.63;7.65;;;-2.60;99.90;;;;;;5021223;28;20116;-55
2022/01/19 00:44:11;;;;;;;22.35;7.50;;;-2.60;99.90;;;;;;5032143;28;20021;-55
2022/01/19 00:46:36;;;;;;;32.28;9.65;;;-2.60;99.90;;;;;;5026954;28;20121;-56
2022/01/19 00:49:02;;;;;;;20.40;8.13;;;-2.60;99.90;;;;;;5024118;28;20428;-53
2022/01/19 00:51:28;;;;;;;30.05;7.93;;;-2.60;99.90;;;;;;5013702;28;20033;-55
2022/01/19 00:53:53;;;;;;;17.73;7.72;;;-2.60;99.90;;;;;;5022781;28;20029;-55
2022/01/19 00:56:19;;;;;;;26.23;8.30;;;-2.60;99.90;;;;;;5031644;28;20021;-55
2022/01/19 00:58:45;;;;;;;15.20;6.80;;;-2.70;99.90;;;;;;5031869;28;20515;-55
2022/01/19 01:01:10;;;;;;;33.20;15.02;;;-2.70;99.90;;;;;;5022719;28;20033;-55
2022/01/19 01:03:36;;;;;;;29.30;13.00;;;-2.70;99.90;;;;;;5014220;28;20520;-56
2022/01/19 01:06:02;;;;;;;26.05;10.48;;;-2.70;99.90;;;;;;5019778;28;20505;-52
2022/01/19 01:08:27;;;;;;;23.05;11.30;;;-2.70;99.90;;;;;;5022087;28;20375;-54
2022/01/19 01:10:53;;;;;;;40.70;14.07;;;-2.70;99.90;;;;;;5024420;28;20551;-54
2022/01/19 01:18:20;;;;;;;30.63;10.40;;;-2.70;99.90;;;;;;5026209;28;20197;-54
2022/01/19 01:20:52;;;;;;;29.83;11.50;;;-2.70;99.90;;;;;;5031431;28;20065;-55
2022/01/19 01:23:23;;;;;;;24.48;11.13;;;-2.70;99.90;;;;;;5026048;28;20496;-56
2022/01/19 01:25:49;;;;;;;18.88;10.05;;;-2.70;99.90;;;;;;5024191;28;20044;-53
2022/01/19 01:28:16;;;;;;;24.80;12.18;;;-2.70;99.90;;;;;;5012598;28;20056;-55
2022/01/19 01:30:42;;;;;;;22.17;9.90;;;-2.70;99.90;;;;;;5019375;28;20036;-52
2022/01/19 01:33:08;;;;;;;23.15;9.80;;;-2.70;99.90;;;;;;5023962;28;20025;-56
2022/01/19 01:35:34;;;;;;;13.00;7.40;;;-2.70;99.90;;;;;;5013227;28;20032;-55
2022/01/19 01:38:00;;;;;;;22.90;7.40;;;-2.70;99.90;;;;;;5020014;28;20038;-57
2022/01/19 01:40:27;;;;;;;21.50;8.43;;;-2.70;99.90;;;;;;5015008;28;20026;-54
2022/01/19 01:42:54;;;;;;;34.95;9.82;;;-2.70;99.90;;;;;;5018412;28;20033;-54
2022/01/19 01:45:26;;;;;;;18.48;9.75;;;-2.60;99.90;;;;;;5015590;28;20156;-55
2022/01/19 01:48:01;;;;;;;23.35;7.32;;;-2.50;99.90;;;;;;5018134;28;20022;-53
2022/01/19 01:53:26;;;;;;;18.42;7.38;;;-2.40;99.90;;;;;;5022137;28;20041;-54
2022/01/19 01:55:59;;;;;;;20.75;9.10;;;-2.30;99.90;;;;;;5012340;28;20048;-54
2022/01/19 01:58:25;;;;;;;22.10;10.70;;;-2.20;99.90;;;;;;5022954;28;20452;-53
2022/01/19 02:00:53;;;;;;;21.38;8.13;;;-2.20;99.90;;;;;;5030109;28;20037;-55
2022/01/19 02:03:20;;;;;;;27.05;8.32;;;-2.10;99.90;;;;;;5031346;28;20025;-54
2022/01/19 02:08:38;;;;;;;19.80;8.40;;;-2.10;99.90;;;;;;5023959;28;20032;-52
2022/01/19 02:21:46;;;;;;;15.40;8.80;;;-2.10;99.90;;;;;;5028023;28;20040;-56
2022/01/19 02:24:19;;;;;;;23.50;9.80;;;-2.10;99.90;;;;;;5025450;28;20036;-52
2022/01/19 02:36:34;;;;;;;25.33;10.57;;;-2.10;99.90;;;;;;5016499;28;20096;-55
2022/01/19 02:40:11;;;;;;;25.98;9.52;;;-2.20;99.90;;;;;;5025395;28;20116;-56
2022/01/19 02:42:51;;;;;;;24.15;9.23;;;-2.20;99.90;;;;;;5024390;28;20021;-53
2022/01/19 02:50:30;;;;;;;26.85;12.68;;;-2.30;99.90;;;;;;5027256;28;20083;-55
2022/01/19 02:52:55;;;;;;;25.88;10.77;;;-2.30;99.90;;;;;;5014155;28;20131;-55
2022/01/19 02:55:22;;;;;;;28.52;11.20;;;-2.30;99.90;;;;;;5024261;28;20104;-53
2022/01/19 02:57:48;;;;;;;26.95;11.43;;;-2.30;99.90;;;;;;5025275;28;20033;-55
2022/01/19 03:08:47;;;;;;;24.48;10.80;;;-2.30;99.90;;;;;;5018938;28;20041;-52
2022/01/19 03:11:16;;;;;;;30.08;11.88;;;-2.20;99.90;;;;;;5019834;28;20377;-55
2022/01/19 03:13:43;;;;;;;25.88;12.20;;;-2.30;99.90;;;;;;5022581;28;20033;-55
2022/01/19 03:16:09;;;;;;;22.98;12.13;;;-2.20;99.90;;;;;;5025679;28;20378;-53
2022/01/19 03:18:35;;;;;;;29.90;12.48;;;-2.20;99.90;;;;;;5014116;28;20059;-56
2022/01/19 03:21:00;;;;;;;32.30;11.98;;;-2.20;99.90;;;;;;5024288;28;20453;-55
2022/01/19 03:23:26;;;;;;;33.65;12.65;;;-2.20;99.90;;;;;;5016762;28;20115;-55
2022/01/19 03:25:53;;;;;;;27.15;13.82;;;-2.20;99.90;;;;;;5021826;28;20037;-56
2022/01/19 03:28:19;;;;;;;31.60;13.52;;;-2.30;99.90;;;;;;5017118;28;20129;-55
2022/01/19 03:30:47;;;;;;;29.20;14.50;;;-2.20;99.90;;;;;;5023014;28;20116;-53
2022/01/19 03:33:13;;;;;;;30.55;13.52;;;-2.20;99.90;;;;;;5020677;28;20144;-55
2022/01/19 03:35:39;;;;;;;27.63;13.63;;;-2.30;99.90;;;;;;5028562;28;20030;-55
2022/01/19 03:38:08;;;;;;;32.42;14.27;;;-2.30;99.90;;;;;;5023485;28;20029;-53
2022/01/19 03:40:35;;;;;;;35.85;14.98;;;-2.30;99.90;;;;;;5018767;28;20030;-57
2022/01/19 03:43:01;;;;;;;38.38;15.43;;;-2.30;99.90;;;;;;5017496;28;20380;-56
2022/01/19 03:45:27;;;;;;;30.80;19.00;;;-2.30;99.90;;;;;;5022009;28;20021;-55
2022/01/19 03:48:07;;;;;;;43.78;15.98;;;-2.30;99.90;;;;;;5016779;28;20087;-52
2022/01/19 03:50:34;;;;;;;38.25;17.20;;;-2.30;99.90;;;;;;5023027;28;20029;-54
2022/01/19 03:53:00;;;;;;;36.70;18.75;;;-2.30;99.90;;;;;;5027381;28;20116;-55
2022/01/19 03:55:26;;;;;;;39.67;17.35;;;-2.30;99.90;;;;;;5023339;28;20034;-54
2022/01/19 03:57:52;;;;;;;39.85;21.27;;;-2.30;99.90;;;;;;5022727;28;20116;-54
2022/01/19 04:00:19;;;;;;;51.50;18.60;;;-2.30;99.90;;;;;;5021942;28;20116;-54
2022/01/19 04:02:45;;;;;;;42.70;18.65;;;-2.30;99.90;;;;;;5021289;28;20512;-54
2022/01/19 04:05:20;;;;;;;30.23;16.65;;;-2.20;99.90;;;;;;5031729;28;20022;-52
2022/01/19 04:07:46;;;;;;;36.17;18.08;;;-2.20;99.90;;;;;;5023747;28;20461;-55
2022/01/19 04:10:11;;;;;;;44.25;19.10;;;-2.20;99.90;;;;;;5012819;28;20030;-55
2022/01/19 04:15:10;;;;;;;43.30;18.60;;;-2.30;99.90;;;;;;5014357;28;20413;-55
2022/01/19 04:17:39;;;;;;;50.65;18.70;;;-2.40;99.90;;;;;;5023456;28;20030;-54
2022/01/19 04:20:06;;;;;;;42.03;19.17;;;-2.40;99.90;;;;;;5014106;28;20053;-52
2022/01/19 04:22:31;;;;;;;32.47;16.75;;;-2.50;99.90;;;;;;5019151;28;20033;-53
2022/01/19 04:24:57;;;;;;;30.48;19.05;;;-2.50;99.90;;;;;;5019201;28;20026;-54
2022/01/19 04:30:01;;;;;;;39.92;21.30;;;-2.50;99.90;;;;;;5019683;28;20037;-55
2022/01/19 04:32:35;;;;;;;43.55;23.90;;;-2.50;99.90;;;;;;5022210;28;20104;-55
2022/01/19 04:35:05;;;;;;;45.50;21.48;;;-2.50;99.90;;;;;;5021724;28;20040;-55
2022/01/19 04:38:01;;;;;;;45.85;20.45;;;-2.50;99.90;;;;;;5016525;28;20021;-52
2022/01/19 04:48:57;;;;;;;49.38;23.20;;;-2.40;99.90;;;;;;5023294;28;20128;-56
2022/01/19 05:04:54;;;;;;;46.90;20.75;;;-2.30;99.90;;;;;;5017515;28;20959;-55
2022/01/19 05:07:43;;;;;;;43.65;21.60;;;-2.30;99.90;;;;;;5023240;28;20021;-52
2022/01/19 05:15:19;;;;;;;40.70;21.10;;;-2.30;99.90;;;;;;5022923;28;20277;-53
2022/01/19 05:17:45;;;;;;;37.47;19.50;;;-2.30;99.90;;;;;;5011973;28;20030;-54
2022/01/19 05:20:12;;;;;;;53.83;21.00;;;-2.30;99.90;;;;;;5002650;28;20033;-56
2022/01/19 05:22:38;;;;;;;44.83;19.95;;;-2.30;99.90;;;;;;5022885;28;20154;-54
2022/01/19 05:25:05;;;;;;;44.17;20.02;;;-2.30;99.90;;;;;;5029849;28;20672;-54
2022/01/19 05:27:31;;;;;;;37.63;19.02;;;-2.30;99.90;;;;;;5013179;28;20036;-52
2022/01/19 05:29:57;;;;;;;39.63;18.65;;;-2.30;99.90;;;;;;5027954;28;20018;-53
2022/01/19 05:32:23;;;;;;;161.75;111.45;;;-2.30;99.90;;;;;;5026766;28;20504;-55
2022/01/19 05:34:49;;;;;;;123.00;79.03;;;-2.30;99.90;;;;;;5022595;28;20056;-55
2022/01/19 05:37:15;;;;;;;116.53;79.18;;;-2.30;99.90;;;;;;5022029;28;20036;-53
2022/01/19 05:39:41;;;;;;;71.82;48.90;;;-2.30;99.90;;;;;;5022585;28;20037;-55
2022/01/19 05:42:14;;;;;;;46.25;27.90;;;-2.20;99.90;;;;;;5021579;28;20040;-55
2022/01/19 05:44:43;;;;;;;65.32;32.45;;;-2.20;99.90;;;;;;5021766;28;20014;-56
2022/01/19 05:47:10;;;;;;;58.97;35.15;;;-2.20;99.90;;;;;;5021921;28;20021;-56
2022/01/19 05:49:37;;;;;;;57.30;29.55;;;-2.20;99.90;;;;;;5021254;28;20108;-55
2022/01/19 05:52:04;;;;;;;38.58;21.45;;;-2.20;99.90;;;;;;5030791;28;20053;-55
2022/01/19 05:54:29;;;;;;;51.42;28.88;;;-2.30;99.90;;;;;;5026018;28;20095;-55
2022/01/19 05:56:57;;;;;;;53.40;32.38;;;-2.30;99.90;;;;;;5026574;28;20463;-55
2022/01/19 05:59:23;;;;;;;44.17;25.75;;;-2.30;99.90;;;;;;5025166;28;20032;-54
2022/01/19 06:01:48;;;;;;;45.05;25.35;;;-2.30;99.90;;;;;;5026160;28;20492;-55
2022/01/19 06:04:14;;;;;;;34.90;19.30;;;-2.30;99.90;;;;;;5024025;28;20033;-55
2022/01/19 06:06:40;;;;;;;36.22;20.38;;;-2.40;99.90;;;;;;5025817;28;20025;-54
2022/01/19 06:09:20;;;;;;;35.50;17.05;;;-2.40;99.90;;;;;;5023644;28;20108;-55
2022/01/19 06:11:46;;;;;;;40.20;20.85;;;-2.50;99.90;;;;;;5027402;28;20517;-55
2022/01/19 06:14:12;;;;;;;38.85;18.98;;;-2.50;99.90;;;;;;5027674;28;20099;-54
2022/01/19 06:16:39;;;;;;;328.83;181.10;;;-2.60;99.90;;;;;;5026388;28;20092;-54
2022/01/19 06:19:05;;;;;;;213.93;120.60;;;-2.60;99.90;;;;;;5027261;28;20408;-54
2022/01/19 06:21:31;;;;;;;185.55;100.90;;;-2.60;99.90;;;;;;5024681;28;20472;-54
2022/01/19 06:23:57;;;;;;;119.53;69.53;;;-2.60;99.90;;;;;;5014817;28;20026;-54
2022/01/19 06:26:23;;;;;;;73.55;34.15;;;-2.60;99.90;;;;;;5013835;28;20050;-54
2022/01/19 06:28:48;;;;;;;52.92;25.55;;;-2.50;99.90;;;;;;5022399;28;20112;-56
2022/01/19 06:31:14;;;;;;;48.00;23.85;;;-2.60;99.90;;;;;;5026544;28;20075;-55
2022/01/19 06:33:39;;;;;;;37.17;19.73;;;-2.50;99.90;;;;;;5034346;28;20029;-55
2022/01/19 06:36:05;;;;;;;39.78;19.08;;;-2.50;99.90;;;;;;5034220;28;20025;-54
2022/01/19 06:38:31;;;;;;;37.10;20.80;;;-2.60;99.90;;;;;;5034364;28;20056;-54
2022/01/19 06:40:57;;;;;;;34.00;19.98;;;-2.60;99.90;;;;;;5034503;28;20083;-52
2022/01/19 06:43:23;;;;;;;30.52;16.90;;;-2.60;99.90;;;;;;5034592;28;20025;-55
2022/01/19 06:45:48;;;;;;;35.30;17.30;;;-2.60;99.90;;;;;;5026581;28;20481;-56
2022/01/19 06:48:14;;;;;;;40.83;22.30;;;-2.50;99.90;;;;;;5019108;28;20089;-53
2022/01/19 06:50:40;;;;;;;41.45;19.15;;;-2.40;99.90;;;;;;5029583;28;20488;-55
2022/01/19 06:53:06;;;;;;;30.30;19.50;;;-2.20;99.90;;;;;;5034320;28;20369;-56
2022/01/19 06:55:32;;;;;;;44.15;20.75;;;-2.20;99.90;;;;;;5034373;28;20532;-55
2022/01/19 06:57:57;;;;;;;42.90;22.75;;;-2.20;99.90;;;;;;5034054;28;20040;-56
2022/01/19 07:00:23;;;;;;;38.17;22.27;;;-2.10;99.90;;;;;;5034102;28;20041;-56
2022/01/19 07:02:49;;;;;;;51.65;21.77;;;-2.00;99.90;;;;;;5033568;28;20069;-55
2022/01/19 07:05:14;;;;;;;49.47;23.38;;;-1.90;99.90;;;;;;5033427;28;20025;-56
2022/01/19 07:07:40;;;;;;;55.58;28.27;;;-1.80;99.90;;;;;;5033939;28;20037;-55
2022/01/19 07:10:07;;;;;;;56.67;27.20;;;-1.80;99.90;;;;;;5034211;28;20043;-53
2022/01/19 07:12:33;;;;;;;39.28;23.90;;;-1.70;99.90;;;;;;5034015;28;20029;-56
2022/01/19 07:14:59;;;;;;;50.78;23.38;;;-1.60;99.90;;;;;;5033847;28;20049;-53
2022/01/19 07:17:25;;;;;;;55.25;23.65;;;-1.50;99.90;;;;;;5034107;28;20597;-54
2022/01/19 07:19:50;;;;;;;46.78;24.20;;;-1.50;99.90;;;;;;5033728;28;20132;-56
2022/01/19 07:22:16;;;;;;;42.13;23.65;;;-1.40;99.90;;;;;;5033654;28;20037;-54
2022/01/19 07:24:43;;;;;;;50.88;24.90;;;-1.40;99.90;;;;;;5033767;28;20022;-56
2022/01/19 07:27:08;;;;;;;48.58;25.30;;;-1.30;99.90;;;;;;5033761;28;20017;-56
2022/01/19 07:29:34;;;;;;;50.20;28.73;;;-1.40;99.90;;;;;;5033708;28;20053;-56
2022/01/19 07:32:00;;;;;;;60.78;24.58;;;-1.40;99.90;;;;;;5033794;28;20087;-56
2022/01/19 07:34:26;;;;;;;50.47;24.52;;;-1.30;99.90;;;;;;5032306;28;20029;-55
2022/01/19 07:36:53;;;;;;;45.45;21.33;;;-1.20;99.90;;;;;;5032245;28;20032;-52
2022/01/19 07:39:19;;;;;;;42.65;21.42;;;-1.20;99.90;;;;;;5033639;28;20021;-55
2022/01/19 07:41:45;;;;;;;47.72;21.58;;;-1.30;99.90;;;;;;5033341;28;20075;-53
2022/01/19 07:44:11;;;;;;;45.85;22.63;;;-1.20;99.90;;;;;;5031942;28;20060;-54
2022/01/19 07:46:36;;;;;;;56.00;21.85;;;-1.10;99.90;;;;;;5033334;28;20048;-56
2022/01/19 07:49:02;;;;;;;47.30;20.45;;;-1.10;99.90;;;;;;5032029;28;20091;-53
2022/01/19 07:51:28;;;;;;;48.42;20.20;;;-1.00;99.90;;;;;;5033267;28;20022;-56
2022/01/19 07:53:54;;;;;;;45.35;19.92;;;-1.00;99.90;;;;;;5032976;28;20036;-54
2022/01/19 07:56:19;;;;;;;38.20;20.17;;;-1.00;99.90;;;;;;5033204;28;20104;-54
2022/01/19 07:58:45;;;;;;;47.10;20.00;;;-1.00;99.90;;;;;;5032872;28;20033;-55
2022/01/19 08:01:11;;;;;;;38.22;16.95;;;-1.00;99.90;;;;;;5033032;28;20477;-55
2022/01/19 08:03:36;;;;;;;41.45;19.38;;;-1.00;99.90;;;;;;5033205;28;20029;-55
2022/01/19 08:06:02;;;;;;;39.28;19.88;;;-1.10;99.90;;;;;;5033091;28;20101;-53
2022/01/19 08:08:28;;;;;;;47.58;25.17;;;-1.00;99.90;;;;;;5033160;28;20017;-52
2022/01/19 08:10:53;;;;;;;33.35;20.10;;;-1.00;99.90;;;;;;5032954;28;20661;-53
2022/01/19 08:13:21;;;;;;;39.58;20.10;;;-1.00;99.90;;;;;;5032995;28;20057;-53
2022/01/19 08:15:46;;;;;;;143.88;43.55;;;-0.80;99.90;;;;;;5032221;28;20489;-53
2022/01/19 08:18:12;;;;;;;51.50;25.23;;;-0.90;99.90;;;;;;5032913;28;20112;-55
2022/01/19 08:20:42;;;;;;;42.08;22.92;;;-0.80;99.90;;;;;;5032841;28;20358;-55
2022/01/19 08:23:08;;;;;;;57.50;20.38;;;-0.70;99.90;;;;;;5032768;28;20034;-52
2022/01/19 08:25:33;;;;;;;68.90;21.85;;;-0.70;99.90;;;;;;5032756;28;20372;-54
2022/01/19 08:27:59;;;;;;;49.10;19.85;;;-0.80;99.90;;;;;;5032505;28;20076;-53
2022/01/19 08:30:25;;;;;;;49.85;19.73;;;-0.70;99.90;;;;;;5032782;28;20476;-55
2022/01/19 08:32:50;;;;;;;49.42;17.95;;;-0.60;99.90;;;;;;5032403;28;20030;-54
2022/01/19 08:35:16;;;;;;;32.28;16.35;;;-0.40;99.90;;;;;;5032948;28;20033;-52
2022/01/19 08:37:42;;;;;;;35.17;14.13;;;-0.30;99.90;;;;;;5032301;28;20030;-54
2022/01/19 08:40:08;;;;;;;31.17;16.08;;;-0.30;99.90;;;;;;5032464;28;20099;-58
2022/01/19 08:42:36;;;;;;;341.40;40.60;;;-0.20;99.90;;;;;;5032152;28;20108;-54
2022/01/19 08:45:07;;;;;;;34.75;19.70;;;-0.10;99.90;;;;;;5024042;28;20040;-56
2022/01/19 08:47:35;;;;;;;34.90;17.45;;;-0.20;99.90;;;;;;5011128;28;20052;-55
2022/01/19 08:50:03;;;;;;;121.60;20.50;;;-0.30;99.90;;;;;;5012500;28;20044;-53
2022/01/19 08:52:28;;;;;;;44.58;21.77;;;-0.50;99.90;;;;;;5012632;28;20026;-56
2022/01/19 08:54:55;;;;;;;76.68;20.75;;;-0.60;99.90;;;;;;5012270;28;20417;-56
2022/01/19 08:57:21;;;;;;;64.72;19.73;;;-0.60;99.90;;;;;;5012382;28;20026;-55
2022/01/19 08:59:47;;;;;;;44.15;20.58;;;-0.50;99.90;;;;;;5012264;28;20369;-56
2022/01/19 09:02:13;;;;;;;41.70;19.33;;;-0.50;99.90;;;;;;5012313;28;20033;-55
2022/01/19 09:04:38;;;;;;;48.50;19.55;;;-0.30;99.90;;;;;;5012203;28;20380;-55
2022/01/19 09:07:04;;;;;;;78.78;23.02;;;-0.30;99.90;;;;;;5012396;28;20069;-55
2022/01/19 09:09:30;;;;;;;35.25;18.48;;;-0.30;99.90;;;;;;5012111;28;20108;-55
2022/01/19 09:11:55;;;;;;;36.00;19.20;;;-0.10;99.90;;;;;;5011877;28;20026;-55
2022/01/19 09:14:21;;;;;;;115.43;20.27;;;0.10;99.90;;;;;;5012029;28;20390;-56
2022/01/19 09:16:49;;;;;;;31.02;16.27;;;-0.30;99.90;;;;;;5011752;28;20376;-57
2022/01/19 09:19:16;;;;;;;55.42;18.63;;;-0.20;99.90;;;;;;5012027;28;20062;-57
2022/01/19 09:21:42;;;;;;;50.63;20.27;;;0.00;99.90;;;;;;5011796;28;20350;-56
2022/01/19 09:24:10;;;;;;;257.20;22.98;;;0.00;99.90;;;;;;5012059;28;20024;-55
2022/01/19 09:26:36;;;;;;;90.88;21.23;;;0.10;99.90;;;;;;5011056;28;20032;-55
2022/01/19 09:29:02;;;;;;;44.50;18.90;;;0.10;99.90;;;;;;5011889;28;20104;-54
2022/01/19 09:31:28;;;;;;;109.65;20.70;;;0.40;99.90;;;;;;5011288;28;20076;-53
2022/01/19 09:34:04;;;;;;;56.78;19.90;;;0.40;99.90;;;;;;5011732;28;20042;-56
2022/01/19 09:36:35;;;;;;;203.27;21.27;;;0.30;99.90;;;;;;5011851;28;20048;-57
2022/01/19 09:39:04;;;;;;;136.68;23.75;;;0.20;99.90;;;;;;5011818;28;20025;-57
2022/01/19 09:41:30;;;;;;;43.72;20.23;;;0.20;99.90;;;;;;5011785;28;20464;-56
2022/01/19 09:43:56;;;;;;;111.65;20.05;;;0.30;99.90;;;;;;5011617;28;20021;-54
2022/01/19 09:46:22;;;;;;;144.75;27.48;;;0.30;99.90;;;;;;5011785;28;20509;-58
2022/01/19 09:48:48;;;;;;;164.52;26.50;;;0.40;99.90;;;;;;5011669;28;20358;-57
2022/01/19 09:51:14;;;;;;;77.88;18.83;;;0.50;99.90;;;;;;5011600;28;20022;-54
2022/01/19 09:53:41;;;;;;;120.35;19.88;;;0.50;99.90;;;;;;5011570;28;20885;-56
2022/01/19 09:56:07;;;;;;;86.80;18.27;;;0.40;99.90;;;;;;5011704;28;20026;-57
2022/01/19 09:58:33;;;;;;;170.15;44.58;;;0.60;99.90;;;;;;5011651;28;20108;-57
2022/01/19 10:00:59;;;;;;;92.85;18.25;;;0.70;99.90;;;;;;5011349;28;20568;-55
2022/01/19 10:03:30;;;;;;;36.15;16.50;;;0.90;99.90;;;;;;5011461;28;20030;-56
2022/01/19 10:06:05;;;;;;;118.07;20.45;;;1.20;99.90;;;;;;5011305;28;20022;-56
2022/01/19 10:08:32;;;;;;;150.20;29.42;;;1.10;99.90;;;;;;5011703;28;20610;-53
2022/01/19 10:17:00;;;;;;;44.92;16.65;;;1.20;99.90;;;;;;5011385;28;20052;-57
2022/01/19 10:19:31;;;;;;;35.97;18.13;;;1.20;99.90;;;;;;5011548;28;20037;-56
2022/01/19 10:22:04;;;;;;;27.02;16.85;;;1.10;99.90;;;;;;5011293;28;20076;-55
2022/01/19 10:24:42;;;;;;;24.55;14.88;;;1.20;99.90;;;;;;5011426;28;20029;-57
2022/01/19 10:27:26;;;;;;;28.63;13.10;;;1.40;99.90;;;;;;5011368;28;20108;-56
2022/01/19 10:29:56;;;;;;;26.00;13.93;;;1.70;99.90;;;;;;5009699;28;20029;-55
2022/01/19 10:32:24;;;;;;;35.63;15.52;;;2.00;99.90;;;;;;5010352;28;20398;-52
2022/01/19 10:34:51;;;;;;;43.17;14.63;;;2.10;99.90;;;;;;5029963;28;20029;-56
2022/01/19 10:37:28;;;;;;;30.10;13.77;;;2.10;99.90;;;;;;5030268;28;20045;-57
2022/01/19 10:39:57;;;;;;;39.60;13.55;;;2.50;99.90;;;;;;5033868;28;20159;-52
2022/01/19 10:42:27;;;;;;;29.48;14.75;;;2.70;99.90;;;;;;5028032;28;20155;-53
2022/01/19 10:44:58;;;;;;;25.23;13.95;;;3.00;99.90;;;;;;5043676;28;20079;-57
2022/01/19 10:47:47;;;;;;;26.45;12.65;;;3.90;99.90;;;;;;5043891;28;20036;-52
2022/01/19 10:50:31;;;;;;;16.95;11.88;;;5.10;99.90;;;;;;5043864;28;20048;-57
2022/01/19 10:52:57;;;;;;;;;;;6.20;99.90;;;;;;5035010;28;20091;-56
2022/01/19 10:55:23;;;;;;;15.68;10.88;;;7.50;97.90;;;;;;5023572;28;19913;-55
2022/01/19 10:57:50;;;;;;;13.32;10.68;;;9.30;91.40;;;;;;5022454;28;20045;-56
2022/01/19 11:00:25;;;;;;;12.73;9.50;;;9.20;91.00;;;;;;5041936;28;20073;-55
2022/01/19 11:03:15;;;;;;;11.27;8.50;;;9.40;87.60;;;;;;5022263;28;20076;-57
2022/01/19 11:05:46;;;;;;;12.65;9.68;;;10.90;82.50;;;;;;5020745;28;20041;-58
2022/01/19 11:08:14;;;;;;;12.77;8.93;;;12.10;74.00;;;;;;5022334;28;20026;-54
2022/01/19 11:10:39;;;;;;;16.15;9.50;;;12.60;72.50;;;;;;5022238;28;20033;-56
2022/01/19 11:13:13;;;;;;;14.90;9.52;;;12.40;68.20;;;;;;5029669;28;20361;-55
2022/01/19 11:15:39;;;;;;;9.95;7.63;;;12.10;68.40;;;;;;5042365;28;20041;-54
2022/01/19 11:18:04;;;;;;;12.77;8.43;;;11.80;67.80;;;;;;5041568;28;20098;-55
2022/01/19 11:20:31;;;;;;;11.30;8.55;;;12.20;68.50;;;;;;5042140;28;20036;-55
2022/01/19 11:23:22;;;;;;;12.25;8.38;;;12.80;64.30;;;;;;5041586;28;20068;-56
2022/01/19 11:25:57;;;;;;;10.05;6.40;;;12.50;64.60;;;;;;5022064;28;20095;-55
2022/01/19 11:28:25;;;;;;;9.25;7.18;;;15.30;58.70;;;;;;5031776;28;20104;-55
2022/01/19 11:30:51;;;;;;;9.05;6.97;;;15.30;53.10;;;;;;5032530;28;20025;-56
2022/01/19 11:33:24;;;;;;;9.52;6.65;;;13.70;57.60;;;;;;5032832;28;20119;-56
2022/01/19 11:36:05;;;;;;;13.52;7.80;;;13.40;55.90;;;;;;5032381;28;20026;-56
2022/01/19 11:38:44;;;;;;;12.50;6.93;;;12.70;57.50;;;;;;5032978;28;20041;-56
2022/01/19 11:41:10;;;;;;;8.63;7.35;;;12.70;59.90;;;;;;5033340;28;20021;-56
2022/01/19 11:43:54;;;;;;;10.32;6.60;;;12.90;58.60;;;;;;5033226;28;20036;-55
2022/01/19 11:46:32;;;;;;;7.65;6.28;;;14.60;56.20;;;;;;5033589;28;20030;-55
2022/01/19 11:49:00;;;;;;;10.45;8.05;;;14.20;56.00;;;;;;5033043;28;20457;-57
2022/01/19 11:51:30;;;;;;;14.82;8.43;;;13.90;55.20;;;;;;5032986;28;20063;-56
2022/01/19 11:54:15;;;;;;;12.98;8.00;;;13.90;55.90;;;;;;5033222;28;20027;-56
2022/01/19 11:56:59;;;;;;;12.40;7.43;;;13.60;57.30;;;;;;5031924;28;20470;-56
2022/01/19 11:59:43;;;;;;;9.85;7.72;;;14.20;56.90;;;;;;5033420;28;20393;-57
2022/01/19 12:02:21;;;;;;;10.93;9.10;;;14.90;54.10;;;;;;5032513;28;20029;-56
2022/01/19 12:04:52;;;;;;;8.50;6.95;;;14.90;53.10;;;;;;5032987;28;20048;-57
2022/01/19 12:07:38;;;;;;;9.48;7.07;;;15.50;53.20;;;;;;5033156;28;20092;-56
2022/01/19 12:10:19;;;;;;;11.70;8.80;;;15.50;52.20;;;;;;5032416;28;20036;-56
2022/01/19 12:13:06;;;;;;;12.20;7.47;;;14.90;51.80;;;;;;5032754;28;20025;-57
2022/01/19 12:16:09;;;;;;;9.65;7.15;;;15.80;51.60;;;;;;5032790;28;20084;-56
2022/01/19 12:18:49;;;;;;;8.38;6.63;;;16.40;51.10;;;;;;5032980;28;20022;-56
2022/01/19 12:21:21;;;;;;;10.70;7.80;;;16.60;49.10;;;;;;5032660;28;20034;-57
2022/01/19 12:23:48;;;;;;;8.15;7.25;;;16.00;50.10;;;;;;5032559;28;20431;-56
2022/01/19 12:26:15;;;;;;;9.50;7.55;;;16.40;49.80;;;;;;5032722;28;20022;-56
2022/01/19 12:28:51;;;;;;;9.05;7.13;;;16.50;50.20;;;;;;5032456;28;20048;-56
2022/01/19 12:31:26;;;;;;;9.52;7.32;;;16.90;48.40;;;;;;5032718;28;20025;-57
2022/01/19 12:34:07;;;;;;;10.18;7.78;;;16.00;48.70;;;;;;5032511;28;20036;-57
2022/01/19 12:36:47;;;;;;;10.38;7.45;;;15.30;50.00;;;;;;5032417;28;20029;-56
2022/01/19 12:39:24;;;;;;;11.98;7.78;;;15.70;50.10;;;;;;5032519;28;20030;-56
2022/01/19 12:41:58;;;;;;;15.20;8.10;;;16.20;50.20;;;;;;5032302;28;20485;-57
2022/01/19 12:44:51;;;;;;;10.85;8.15;;;16.50;48.20;;;;;;5032393;28;20156;-57
2022/01/19 12:47:28;;;;;;;10.20;8.30;;;17.60;47.10;;;;;;5031130;28;20132;-57
2022/01/19 12:50:04;;;;;;;10.77;8.48;;;17.70;46.50;;;;;;5032176;28;20355;-57
2022/01/19 12:52:32;;;;;;;10.23;7.65;;;16.70;47.80;;;;;;5032329;28;20030;-56
2022/01/19 12:55:14;;;;;;;10.27;8.10;;;16.40;47.50;;;;;;5032151;28;20124;-56
2022/01/19 12:57:40;;;;;;;13.15;9.32;;;16.20;49.60;;;;;;5031990;28;20033;-57
2022/01/19 13:00:09;;;;;;;13.20;7.75;;;18.80;46.20;;;;;;5031905;28;20656;-56
2022/01/19 13:02:35;;;;;;;8.77;7.25;;;19.10;44.70;;;;;;5031639;28;20124;-56
2022/01/19 13:05:06;;;;;;;10.90;7.50;;;20.70;43.00;;;;;;5030536;28;20404;-56
2022/01/19 13:07:36;;;;;;;9.45;7.35;;;19.60;42.70;;;;;;5031994;28;20555;-57
2022/01/19 13:10:25;;;;;;;10.68;7.20;;;18.90;43.50;;;;;;5031967;28;20053;-56
2022/01/19 13:13:25;;;;;;;9.90;7.40;;;19.80;42.90;;;;;;5031812;28;20080;-55
2022/01/19 13:15:49;;;;;;;9.82;6.88;;;19.60;41.80;;;;;;5031512;28;20080;-57
2022/01/19 13:18:27;;;;;;;9.90;6.93;;;19.70;42.60;;;;;;5031704;28;20388;-57
2022/01/19 13:20:55;;;;;;;9.45;7.10;;;19.60;41.50;;;;;;5031450;28;20042;-57
2022/01/19 13:23:21;;;;;;;10.65;7.10;;;19.20;42.70;;;;;;5031768;28;20029;-56
2022/01/19 13:26:08;;;;;;;8.73;6.32;;;19.40;41.50;;;;;;5031564;28;20029;-57
2022/01/19 13:28:35;;;;;;;10.95;6.10;;;21.20;39.90;;;;;;5031435;28;20021;-57
2022/01/19 13:31:10;;;;;;;7.65;6.25;;;19.50;41.70;;;;;;5031547;28;20100;-56
2022/01/19 13:33:36;;;;;;;7.88;6.45;;;20.50;41.70;;;;;;5031539;28;20051;-56
2022/01/19 13:36:02;;;;;;;9.50;6.63;;;21.10;40.60;;;;;;5031642;28;20108;-56
2022/01/19 13:38:28;;;;;;;10.15;6.78;;;21.20;40.20;;;;;;5031370;28;20121;-57
2022/01/19 13:41:09;;;;;;;9.90;7.07;;;21.30;39.60;;;;;;5031342;28;20084;-57
2022/01/19 13:43:39;;;;;;;9.82;7.15;;;21.20;40.00;;;;;;5031341;28;20028;-56
2022/01/19 13:46:13;;;;;;;9.05;6.90;;;21.30;39.30;;;;;;5031510;28;20391;-56
2022/01/19 13:48:43;;;;;;;10.27;6.43;;;20.20;40.90;;;;;;5031307;28;20021;-57
2022/01/19 13:51:11;;;;;;;9.57;7.10;;;19.90;41.20;;;;;;5030166;28;20022;-57
2022/01/19 13:53:38;;;;;;;12.93;7.70;;;19.40;40.80;;;;;;5031300;28;20070;-56
2022/01/19 13:56:23;;;;;;;8.82;6.60;;;19.70;41.50;;;;;;5031531;28;20036;-57
2022/01/19 13:58:54;;;;;;;7.70;6.53;;;18.40;43.40;;;;;;5031300;28;20021;-57
2022/01/19 14:01:32;;;;;;;12.05;6.45;;;18.50;43.70;;;;;;5031216;28;20018;-57
2022/01/19 14:04:04;;;;;;;15.93;7.53;;;17.90;44.60;;;;;;5031040;28;20559;-57
2022/01/19 14:06:41;;;;;;;8.73;7.13;;;17.50;44.90;;;;;;5031214;28;20033;-57